Abis Cuxhaven — PBYB — position and weather

sailwx.info

Track history (hours):
 
Tides and Currents Weather Stations Pressure Air Temp Water Temp Dewpoint Dewpoint Depression Visibility Wind Speed Wind Dir Waves Ship Positions

Abis Cuxhaven

Last reported at 2015-Aug-28 18:33 UTC. Time now 2015-Aug-28 19:17 UTC.
Position N 53°49' E 004°58'.

Length 114 m; draft 4.6 m.

Type: Cargo ship. MMSI: 246670000.

Date/timePositionNaut miles runAvg speedWind from/ knotsBaromVisibWave heightAir tempDewpointWater temp
2015-Aug-28 18:33N 53°49' E 004°58'9 9.4
2015-Aug-28 17:33N 53°40' E 004°53'10 9.8
2015-Aug-28 16:33N 53°31' E 004°47'1010.3
2015-Aug-28 15:33N 53°22' E 004°40'3210.8
2015-Aug-28 12:33N 52°53' E 004°16'1010.3
2015-Aug-28 11:33N 52°44' E 004°06'20 9.6
2015-Aug-28 09:28N 52°30' E 003°44'8 9.1
2015-Aug-28 08:33N 52°24' E 003°34'58 9.3
2015-Aug-28 02:20N 51°41' E 002°32'910.9
2015-Aug-28 01:28N 51°34' E 002°22'1111.3
2015-Aug-28 00:31N 51°25' E 002°13'1111.6
2015-Aug-27 23:33N 51°15' E 002°04'1212.4
2015-Aug-27 22:33N 51°07' E 001°49'6 5.9
2015-Aug-27 21:33N 51°02' E 001°54'9 8.8
2015-Aug-27 20:32N 51°03' E 002°08'3 2.9
2015-Aug-27 19:30N 51°01' E 002°11'0 0.0
2015-Aug-27 18:15N 51°01' E 002°11'0 0.0
2015-Aug-27 17:06N 51°01' E 002°11'0 0.0
2015-Aug-27 16:21N 51°01' E 002°11'0 0.0
2015-Aug-26 20:15N 51°01' E 002°11'2 3.0
2015-Aug-26 19:32N 51°03' E 002°10'1312.9
2015-Aug-26 18:33N 51°01' E 001°50'1010.3
2015-Aug-26 17:33N 50°56' E 001°35'1211.6
2015-Aug-26 16:33N 50°47' E 001°25'  
Track history (hours):
 
Tides and Currents Weather Stations Pressure Air Temp Water Temp Dewpoint Dewpoint Depression Visibility Wind Speed Wind Dir Waves Ship Positions

Abis Cuxhaven

Last reported at 2015-Aug-28 18:33 UTC. Time now 2015-Aug-28 19:17 UTC.
Position N 53°49' E 004°58'.

Length 114 m; draft 4.6 m.

Type: Cargo ship. MMSI: 246670000.

Date/timePositionNaut miles runAvg speedWind from/ knotsBaromVisibWave heightAir tempDewpointWater temp
2015-Aug-28 18:33N 53°49' E 004°58'9 9.4
2015-Aug-28 17:33N 53°40' E 004°53'10 9.8
2015-Aug-28 16:33N 53°31' E 004°47'1010.3
2015-Aug-28 15:33N 53°22' E 004°40'3210.8
2015-Aug-28 12:33N 52°53' E 004°16'1010.3
2015-Aug-28 11:33N 52°44' E 004°06'20 9.6
2015-Aug-28 09:28N 52°30' E 003°44'8 9.1
2015-Aug-28 08:33N 52°24' E 003°34'58 9.3
2015-Aug-28 02:20N 51°41' E 002°32'910.9
2015-Aug-28 01:28N 51°34' E 002°22'1111.3
2015-Aug-28 00:31N 51°25' E 002°13'1111.6
2015-Aug-27 23:33N 51°15' E 002°04'1212.4
2015-Aug-27 22:33N 51°07' E 001°49'6 5.9
2015-Aug-27 21:33N 51°02' E 001°54'9 8.8
2015-Aug-27 20:32N 51°03' E 002°08'3 2.9
2015-Aug-27 19:30N 51°01' E 002°11'0 0.0
2015-Aug-27 18:15N 51°01' E 002°11'0 0.0
2015-Aug-27 17:06N 51°01' E 002°11'0 0.0
2015-Aug-27 16:21N 51°01' E 002°11'0 0.0
2015-Aug-26 20:15N 51°01' E 002°11'2 3.0
2015-Aug-26 19:32N 51°03' E 002°10'1312.9
2015-Aug-26 18:33N 51°01' E 001°50'1010.3
2015-Aug-26 17:33N 50°56' E 001°35'1211.6
2015-Aug-26 16:33N 50°47' E 001°25'  

Dump ship's entire track history